createdAt,value
2019-05-14T00:00:24.508Z,7.47
2019-05-14T00:02:53.768Z,12.30
2019-05-14T00:05:24.415Z,9.27
2019-05-14T00:07:57.489Z,8.30
2019-05-14T00:10:28.302Z,9.70
2019-05-14T00:12:58.643Z,7.30
2019-05-14T00:15:27.920Z,14.37
2019-05-14T00:17:57.187Z,9.30
2019-05-14T00:20:26.418Z,11.20
2019-05-14T00:22:56.771Z,6.30
2019-05-14T00:25:26.025Z,21.17
2019-05-14T00:27:55.662Z,9.50
2019-05-14T00:30:25.290Z,6.60
2019-05-14T00:32:54.919Z,8.90
2019-05-14T00:35:24.627Z,9.00
2019-05-14T00:37:53.867Z,16.27
2019-05-14T00:40:23.410Z,8.27
2019-05-14T00:42:53.420Z,15.80
2019-05-14T00:45:22.749Z,10.07
2019-05-14T00:47:53.985Z,9.73
2019-05-14T00:50:23.910Z,11.23
2019-05-14T00:52:53.433Z,8.23
2019-05-14T00:55:22.655Z,9.28
2019-05-14T00:57:53.410Z,17.73
2019-05-14T01:00:22.980Z,13.90
2019-05-14T01:02:52.666Z,14.33
2019-05-14T01:05:22.208Z,13.23
2019-05-14T01:07:51.621Z,12.77
2019-05-14T01:10:22.178Z,10.73
2019-05-14T01:12:52.186Z,12.40
2019-05-14T01:15:21.853Z,12.20
2019-05-14T01:17:51.530Z,9.97
2019-05-14T01:20:21.335Z,8.60
2019-05-14T01:22:51.578Z,11.83
2019-05-14T01:25:23.566Z,14.13
2019-05-14T01:27:52.154Z,16.50
2019-05-14T01:30:22.476Z,12.00
2019-05-14T01:32:51.709Z,17.60
2019-05-14T01:35:22.164Z,9.30
2019-05-14T01:37:52.166Z,10.30
2019-05-14T01:40:21.991Z,12.13
2019-05-14T01:42:53.276Z,12.27
2019-05-14T01:45:27.933Z,12.77
2019-05-14T01:47:54.957Z,13.23
2019-05-14T01:50:24.642Z,11.37
2019-05-14T01:52:53.884Z,15.47
2019-05-14T01:55:24.138Z,12.63
2019-05-14T01:57:53.402Z,12.30
2019-05-14T02:00:22.860Z,17.25
2019-05-14T02:02:52.621Z,20.63
2019-05-14T02:05:21.936Z,16.73
2019-05-14T02:07:52.652Z,15.20
2019-05-14T02:10:22.240Z,21.20
2019-05-14T02:12:51.756Z,15.03
2019-05-14T02:15:21.491Z,16.60
2019-05-14T02:17:52.311Z,24.00
2019-05-14T02:20:21.723Z,21.12
2019-05-14T02:22:52.413Z,14.40
2019-05-14T02:25:21.870Z,14.43
2019-05-14T02:27:51.977Z,15.60
2019-05-14T02:30:32.058Z,19.37
2019-05-14T02:32:53.551Z,15.80
2019-05-14T02:35:24.487Z,18.33
2019-05-14T02:37:53.865Z,17.50
2019-05-14T02:40:23.186Z,17.60
2019-05-14T02:42:53.418Z,21.40
2019-05-14T02:45:22.636Z,21.60
2019-05-14T02:47:52.195Z,16.60
2019-05-14T02:50:21.752Z,24.83
2019-05-14T02:52:51.016Z,17.43
2019-05-14T02:55:20.303Z,19.37
2019-05-14T02:57:50.337Z,19.30
2019-05-14T03:00:19.637Z,17.77
2019-05-14T03:02:49.617Z,24.87
2019-05-14T03:05:19.525Z,19.03
2019-05-14T03:07:50.212Z,19.60
2019-05-14T03:10:20.276Z,17.80
2019-05-14T03:12:50.411Z,16.97
2019-05-14T03:15:20.426Z,17.60
2019-05-14T03:17:50.592Z,19.30
2019-05-14T03:20:19.980Z,18.03
2019-05-14T03:23:01.709Z,18.90
2019-05-14T03:25:20.410Z,17.70
2019-05-14T03:27:49.995Z,19.50
2019-05-14T03:30:22.728Z,21.20
2019-05-14T03:32:52.930Z,21.00
2019-05-14T03:35:26.345Z,16.17
2019-05-14T03:37:52.862Z,23.57
2019-05-14T03:40:22.825Z,15.40
2019-05-14T03:42:53.209Z,17.20
2019-05-14T03:45:22.622Z,17.60
2019-05-14T03:47:52.250Z,18.03
2019-05-14T03:50:23.693Z,21.70
2019-05-14T03:52:53.344Z,23.37
2019-05-14T03:55:22.581Z,25.43
2019-05-14T03:57:52.104Z,22.43
2019-05-14T04:00:39.022Z,22.70
2019-05-14T04:03:09.742Z,23.50
2019-05-14T04:05:40.272Z,25.00
2019-05-14T04:08:09.846Z,21.07
2019-05-14T04:10:48.735Z,18.43
2019-05-14T04:13:13.098Z,18.80
2019-05-14T04:15:42.384Z,21.37
2019-05-14T04:18:13.812Z,18.43
2019-05-14T04:20:44.530Z,24.83
2019-05-14T04:23:19.690Z,20.17
2019-05-14T04:25:50.019Z,16.00
2019-05-14T04:30:23.953Z,17.27
2019-05-14T04:32:50.890Z,19.73
2019-05-14T04:35:23.363Z,23.13
2019-05-14T04:37:52.803Z,16.43
2019-05-14T04:40:22.066Z,17.03
2019-05-14T04:42:51.333Z,17.47
2019-05-14T04:45:20.596Z,17.87
2019-05-14T04:47:50.244Z,21.80
2019-05-14T04:50:25.291Z,13.70
2019-05-14T04:52:54.179Z,18.20
2019-05-14T04:55:23.659Z,22.57
2019-05-14T04:57:53.004Z,13.93
2019-05-14T05:00:22.247Z,12.87
2019-05-14T05:02:52.593Z,15.10
2019-05-14T05:05:21.831Z,13.17
2019-05-14T05:07:51.410Z,12.57
2019-05-14T05:10:22.467Z,12.20
2019-05-14T05:12:53.053Z,9.13
2019-05-14T05:15:22.583Z,13.70
2019-05-14T05:17:53.233Z,13.43
2019-05-14T05:20:22.593Z,11.80
2019-05-14T05:22:52.227Z,6.27
2019-05-14T05:25:21.540Z,8.85
2019-05-14T05:27:51.079Z,9.90
2019-05-14T05:30:21.449Z,5.50
2019-05-14T05:32:50.723Z,7.47
2019-05-14T05:35:20.272Z,5.43
2019-05-14T05:37:49.486Z,14.30
2019-05-14T05:40:19.691Z,8.03
2019-05-14T05:42:49.374Z,8.80
2019-05-14T05:45:18.730Z,13.45
2019-05-14T05:47:57.359Z,5.17
2019-05-14T05:50:20.242Z,7.63
2019-05-14T05:52:53.461Z,5.77
2019-05-14T05:55:20.466Z,6.00
2019-05-14T05:57:49.768Z,8.03
2019-05-14T06:00:32.952Z,11.10
2019-05-14T06:03:02.197Z,5.90
2019-05-14T06:05:31.890Z,9.77
2019-05-14T06:08:01.643Z,8.83
2019-05-14T06:10:32.743Z,5.57
2019-05-14T06:13:03.343Z,7.70
2019-05-14T06:15:44.760Z,10.03
2019-05-14T06:18:15.248Z,11.60
2019-05-14T06:20:35.298Z,5.90
2019-05-14T06:23:04.599Z,12.63
2019-05-14T06:25:34.153Z,7.00
2019-05-14T06:28:03.764Z,5.50
2019-05-14T06:30:35.399Z,6.63
2019-05-14T06:33:09.064Z,9.30
2019-05-14T06:35:39.879Z,10.67
2019-05-14T06:38:09.981Z,5.90
2019-05-14T06:40:39.752Z,6.03
2019-05-14T06:43:09.237Z,6.73
2019-05-14T06:45:39.109Z,7.40
2019-05-14T06:48:08.877Z,16.50
2019-05-14T06:50:39.222Z,6.47
2019-05-14T06:53:09.063Z,14.40
2019-05-14T06:55:39.325Z,4.53
2019-05-14T06:58:09.181Z,8.53
2019-05-14T07:00:39.695Z,7.50
2019-05-14T07:03:09.237Z,6.93
2019-05-14T07:05:39.140Z,14.97
2019-05-14T07:08:09.226Z,6.97
2019-05-14T07:10:40.094Z,12.53
2019-05-14T07:13:09.352Z,10.50
2019-05-14T07:15:38.901Z,10.80
2019-05-14T07:18:08.755Z,13.13
2019-05-14T07:20:39.149Z,7.63
2019-05-14T07:23:10.413Z,13.23
2019-05-14T07:25:41.278Z,8.83
2019-05-14T07:28:11.041Z,4.80
2019-05-14T07:30:40.589Z,20.37
2019-05-14T07:33:11.203Z,8.00
2019-05-14T07:35:40.478Z,7.80
2019-05-14T07:38:09.895Z,5.13
2019-05-14T07:40:39.544Z,7.00
2019-05-14T07:43:10.154Z,4.50
2019-05-14T07:45:39.561Z,7.10
2019-05-14T07:48:09.799Z,9.00
2019-05-14T07:50:39.920Z,6.13
2019-05-14T07:53:09.382Z,2.57
2019-05-14T07:55:38.713Z,3.83
2019-05-14T07:58:08.481Z,4.83
2019-05-14T08:00:40.365Z,10.60
2019-05-14T08:03:10.080Z,5.97
2019-05-14T08:05:39.321Z,5.87
2019-05-14T08:08:08.598Z,3.27
2019-05-14T08:10:39.186Z,6.00
2019-05-14T08:13:12.533Z,9.63
2019-05-14T08:15:42.457Z,7.30
2019-05-14T08:18:14.516Z,10.13
2019-05-14T08:20:45.277Z,9.50
2019-05-14T08:23:14.515Z,5.80
2019-05-14T08:25:44.147Z,3.77
2019-05-14T08:28:13.422Z,5.10
2019-05-14T08:30:42.679Z,6.20
2019-05-14T08:33:12.125Z,5.80
2019-05-14T08:35:42.072Z,8.23
2019-05-14T08:38:12.157Z,3.50
2019-05-14T08:40:41.671Z,7.45
2019-05-14T08:43:10.997Z,7.20
2019-05-14T08:45:41.623Z,8.00
2019-05-14T08:48:10.974Z,4.70
2019-05-14T08:50:40.314Z,3.20
2019-05-14T08:53:09.563Z,7.83
2019-05-14T08:55:39.255Z,5.90
2019-05-14T08:58:13.611Z,6.70
2019-05-14T09:00:39.886Z,3.30
2019-05-14T09:03:09.149Z,2.70
2019-05-14T09:05:38.706Z,3.23
2019-05-14T09:08:09.335Z,2.87
2019-05-14T09:10:40.199Z,3.90
2019-05-14T09:13:09.548Z,3.47
2019-05-14T09:15:40.936Z,6.60
2019-05-14T09:18:11.778Z,3.93
2019-05-14T09:20:43.526Z,3.03
2019-05-14T09:23:13.924Z,5.97
2019-05-14T09:25:47.283Z,4.87
2019-05-14T09:28:14.290Z,6.93
2019-05-14T09:30:43.555Z,6.40
2019-05-14T09:33:12.815Z,3.67
2019-05-14T09:35:49.286Z,3.30
2019-05-14T09:38:18.955Z,6.43
2019-05-14T09:40:49.002Z,7.00
2019-05-14T09:43:18.399Z,3.00
2019-05-14T09:45:48.161Z,5.60
2019-05-14T09:48:18.152Z,5.67
2019-05-14T09:50:48.944Z,3.30
2019-05-14T09:53:18.440Z,8.60
2019-05-14T09:55:49.153Z,3.35
2019-05-14T09:58:19.850Z,5.33
2019-05-14T10:00:49.452Z,5.23
2019-05-14T10:03:19.387Z,6.50
2019-05-14T10:05:50.153Z,3.40
2019-05-14T10:08:19.599Z,6.33
2019-05-14T10:10:50.525Z,4.97
2019-05-14T10:13:20.473Z,6.00
2019-05-14T10:15:50.025Z,3.27
2019-05-14T10:18:21.286Z,4.00
2019-05-14T10:20:51.271Z,3.43
2019-05-14T10:23:20.774Z,4.33
2019-05-14T10:25:50.379Z,4.60
2019-05-14T10:28:21.673Z,9.10
2019-05-14T10:30:50.933Z,7.10
2019-05-14T10:33:20.144Z,4.90
2019-05-14T10:35:49.454Z,5.00
2019-05-14T10:38:19.152Z,6.07
2019-05-14T10:40:48.480Z,9.10
2019-05-14T10:43:19.869Z,4.20
2019-05-14T10:45:49.569Z,3.70
2019-05-14T10:48:19.183Z,6.13
2019-05-14T10:50:58.999Z,11.73
2019-05-14T10:53:20.475Z,8.70
2019-05-14T10:55:49.898Z,5.03
2019-05-14T10:58:19.728Z,2.80
2019-05-14T11:00:49.599Z,5.37
2019-05-14T11:03:19.003Z,3.63
2019-05-14T11:05:48.319Z,3.63
2019-05-14T11:08:18.866Z,2.37
2019-05-14T11:10:49.793Z,3.83
2019-05-14T11:13:19.462Z,6.97
2019-05-14T11:15:49.600Z,4.13
2019-05-14T11:18:19.924Z,6.97
2019-05-14T11:20:51.510Z,4.53
2019-05-14T11:23:25.053Z,3.10
2019-05-14T11:25:54.338Z,3.70
2019-05-14T11:28:24.016Z,6.13
2019-05-14T11:30:54.110Z,4.63
2019-05-14T11:33:23.342Z,4.10
2019-05-14T11:35:53.164Z,4.30
2019-05-14T11:38:33.770Z,4.43
2019-05-14T11:40:53.779Z,3.73
2019-05-14T11:43:23.017Z,3.67
2019-05-14T11:45:53.380Z,4.50
2019-05-14T11:48:23.795Z,4.73
2019-05-14T11:50:53.063Z,7.47
2019-05-14T11:53:22.641Z,4.40
2019-05-14T11:55:52.369Z,2.57
2019-05-14T11:58:21.677Z,5.83
2019-05-14T12:00:50.851Z,5.50
2019-05-14T12:03:20.632Z,5.43
2019-05-14T12:05:50.294Z,4.80
2019-05-14T12:08:19.749Z,4.17
2019-05-14T12:10:49.002Z,3.43
2019-05-14T12:13:19.392Z,3.57
2019-05-14T12:15:48.793Z,3.90
2019-05-14T12:18:19.504Z,5.93
2019-05-14T12:20:49.870Z,3.37
2019-05-14T12:23:19.676Z,3.57
2019-05-14T12:25:49.355Z,8.67
2019-05-14T12:28:19.233Z,5.00
2019-05-14T12:30:49.161Z,7.70
2019-05-14T12:33:19.918Z,4.10
2019-05-14T12:35:49.622Z,5.27
2019-05-14T12:38:19.098Z,3.63
2019-05-14T12:40:48.363Z,4.53
2019-05-14T12:43:18.777Z,6.50
2019-05-14T12:45:48.403Z,18.23
2019-05-14T12:48:18.791Z,4.03
2019-05-14T12:50:48.987Z,7.00
2019-05-14T12:53:19.906Z,4.33
2019-05-14T12:55:49.730Z,8.80
2019-05-14T12:58:20.594Z,3.80
2019-05-14T13:00:50.990Z,6.90
2019-05-14T13:03:20.624Z,8.10
2019-05-14T13:05:50.080Z,6.00
2019-05-14T13:08:19.699Z,5.10
2019-05-14T13:10:49.353Z,6.30
2019-05-14T13:13:19.789Z,4.10
2019-05-14T13:15:49.300Z,6.60
2019-05-14T13:18:21.498Z,6.00
2019-05-14T13:20:50.737Z,5.80
2019-05-14T13:23:20.049Z,4.87
2019-05-14T13:25:49.401Z,8.03
2019-05-14T13:28:19.501Z,3.90
2019-05-14T13:30:49.450Z,4.87
2019-05-14T13:33:19.493Z,4.00
2019-05-14T13:35:51.286Z,7.27
2019-05-14T13:38:20.542Z,5.40
2019-05-14T13:40:50.044Z,6.13
2019-05-14T13:43:20.674Z,3.93
2019-05-14T13:45:49.913Z,7.97
2019-05-14T13:48:19.233Z,6.20
2019-05-14T13:50:50.636Z,3.67
2019-05-14T13:53:19.903Z,4.57
2019-05-14T13:55:57.191Z,4.23
2019-05-14T13:58:21.176Z,3.90
2019-05-14T14:00:52.035Z,4.10
2019-05-14T14:03:21.623Z,6.10
2019-05-14T14:05:50.884Z,3.20
2019-05-14T14:08:21.269Z,13.40
2019-05-14T14:10:53.287Z,3.77
2019-05-14T14:13:21.486Z,3.07
2019-05-14T14:15:51.118Z,3.20
2019-05-14T14:18:21.194Z,4.97
2019-05-14T14:20:50.833Z,4.30
2019-05-14T14:23:26.773Z,4.20
2019-05-14T14:25:54.933Z,8.50
2019-05-14T14:28:24.907Z,4.20
2019-05-14T14:30:54.814Z,4.80
2019-05-14T14:33:24.379Z,10.03
2019-05-14T14:35:53.675Z,4.80
2019-05-14T14:38:23.371Z,6.10
2019-05-14T14:40:53.137Z,7.23
2019-05-14T14:43:23.154Z,9.27
2019-05-14T14:45:52.405Z,6.77
2019-05-14T14:48:21.617Z,4.10
2019-05-14T14:50:52.583Z,4.30
2019-05-14T14:53:41.357Z,3.03
2019-05-14T14:55:53.200Z,6.97
2019-05-14T14:58:23.505Z,8.67
2019-05-14T15:00:52.760Z,7.40
2019-05-14T15:03:22.137Z,3.23
2019-05-14T15:05:54.362Z,6.07
2019-05-14T15:08:23.634Z,5.67
2019-05-14T15:10:54.582Z,5.77
2019-05-14T15:13:23.829Z,8.57
2019-05-14T15:15:53.270Z,4.10
2019-05-14T15:18:22.954Z,7.90
2019-05-14T15:20:55.355Z,3.13
2019-05-14T15:23:25.106Z,8.93
2019-05-14T15:25:54.334Z,6.20
2019-05-14T15:28:23.975Z,7.80
2019-05-14T15:30:53.305Z,5.83
2019-05-14T15:33:23.132Z,5.23
2019-05-14T15:35:53.252Z,3.97
2019-05-14T15:38:22.630Z,5.47
2019-05-14T15:40:52.364Z,5.23
2019-05-14T15:43:22.004Z,3.30
2019-05-14T15:45:51.305Z,4.43
2019-05-14T15:48:20.619Z,5.43
2019-05-14T15:50:50.373Z,4.77
2019-05-14T15:53:19.825Z,4.47
2019-05-14T15:55:49.727Z,4.13
2019-05-14T15:58:21.662Z,5.40
2019-05-14T16:00:51.053Z,4.40
2019-05-14T16:03:20.688Z,3.23
2019-05-14T16:05:50.170Z,5.73
2019-05-14T16:08:22.874Z,3.47
2019-05-14T16:10:51.363Z,5.23
2019-05-14T16:13:21.387Z,10.00
2019-05-14T16:15:51.411Z,8.13
2019-05-14T16:18:22.409Z,2.87
2019-05-14T16:20:51.811Z,7.97
2019-05-14T16:23:21.098Z,3.50
2019-05-14T16:25:50.850Z,5.10
2019-05-14T16:28:21.382Z,5.57
2019-05-14T16:30:50.738Z,7.90
2019-05-14T16:33:20.164Z,4.97
2019-05-14T16:35:50.107Z,3.90
2019-05-14T16:38:23.196Z,3.13
2019-05-14T16:40:53.127Z,6.93
2019-05-14T16:43:22.415Z,4.87
2019-05-14T16:45:52.334Z,5.95
2019-05-14T16:48:22.015Z,2.70
2019-05-14T16:50:51.263Z,4.83
2019-05-14T16:53:20.532Z,3.70
2019-05-14T16:55:50.279Z,5.23
2019-05-14T16:58:20.105Z,3.60
2019-05-14T17:00:49.390Z,8.57
2019-05-14T17:03:19.217Z,7.13
2019-05-14T17:05:50.624Z,3.97
2019-05-14T17:08:19.910Z,5.50
2019-05-14T17:10:49.554Z,5.03
2019-05-14T17:13:19.230Z,9.87
2019-05-14T17:15:49.373Z,3.90
2019-05-14T17:18:19.246Z,3.97
2019-05-14T17:20:48.952Z,3.67
2019-05-14T17:23:19.376Z,4.60
2019-05-14T17:25:49.775Z,4.67
2019-05-14T17:28:19.108Z,7.10
2019-05-14T17:30:49.283Z,10.90
2019-05-14T17:33:18.680Z,6.00
2019-05-14T17:35:48.369Z,3.30
2019-05-14T17:38:19.209Z,10.33
2019-05-14T17:40:49.117Z,5.80
2019-05-14T17:43:19.148Z,2.70
2019-05-14T17:45:49.445Z,10.50
2019-05-14T17:48:19.005Z,6.60
2019-05-14T17:50:49.156Z,4.60
2019-05-14T17:53:18.524Z,10.17
2019-05-14T17:55:50.758Z,8.70
2019-05-14T17:58:19.186Z,3.77
2019-05-14T18:00:48.623Z,4.60
2019-05-14T18:03:19.564Z,13.43
2019-05-14T18:05:48.826Z,3.80
2019-05-14T18:08:18.653Z,5.23
2019-05-14T18:10:49.768Z,3.57
2019-05-14T18:13:20.611Z,4.33
2019-05-14T18:15:50.202Z,8.03
2019-05-14T18:18:19.954Z,6.93
2019-05-14T18:20:50.565Z,4.47
2019-05-14T18:23:20.073Z,3.80
2019-05-14T18:26:04.040Z,4.50
2019-05-14T18:28:20.356Z,3.13
2019-05-14T18:30:49.558Z,4.60
2019-05-14T18:33:19.179Z,3.60
2019-05-14T18:35:50.880Z,5.07
2019-05-14T18:38:20.143Z,5.10
2019-05-14T18:40:49.658Z,7.87
2019-05-14T18:43:19.815Z,6.70
2019-05-14T18:45:49.061Z,9.13
2019-05-14T18:48:19.418Z,4.67
2019-05-14T18:50:48.831Z,10.83
2019-05-14T18:53:19.096Z,6.43
2019-05-14T18:55:49.787Z,5.53
2019-05-14T18:58:21.469Z,9.03
2019-05-14T19:00:50.872Z,7.60
2019-05-14T19:03:20.404Z,4.10
2019-05-14T19:05:50.104Z,6.45
2019-05-14T19:08:19.960Z,10.10
2019-05-14T19:10:49.694Z,4.90
2019-05-14T19:13:19.321Z,6.57
2019-05-14T19:15:48.728Z,6.77
2019-05-14T19:18:19.253Z,11.17
2019-05-14T19:20:49.104Z,4.57
2019-05-14T19:23:18.875Z,3.60
2019-05-14T19:25:48.480Z,6.93
2019-05-14T19:28:18.725Z,4.67
2019-05-14T19:30:48.785Z,5.80
2019-05-14T19:33:20.533Z,4.10
2019-05-14T19:35:50.070Z,5.90
2019-05-14T19:38:20.082Z,5.27
2019-05-14T19:40:49.322Z,6.97
2019-05-14T19:43:19.990Z,5.77
2019-05-14T19:45:49.201Z,6.40
2019-05-14T19:48:19.041Z,5.63
2019-05-14T19:50:49.208Z,6.67
2019-05-14T19:53:18.848Z,6.80
2019-05-14T19:55:48.722Z,6.63
2019-05-14T19:58:20.208Z,7.20
2019-05-14T20:00:50.400Z,2.37
2019-05-14T20:03:19.610Z,9.17
2019-05-14T20:05:49.399Z,6.10
2019-05-14T20:08:19.131Z,3.30
2019-05-14T20:10:49.779Z,5.90
2019-05-14T20:13:19.681Z,3.97
2019-05-14T20:15:48.955Z,6.13
2019-05-14T20:18:18.217Z,6.30
2019-05-14T20:20:49.311Z,6.80
2019-05-14T20:23:18.691Z,3.63
2019-05-14T20:25:48.355Z,6.40
2019-05-14T20:28:18.926Z,10.83
2019-05-14T20:30:49.432Z,6.47
2019-05-14T20:33:19.195Z,4.37
2019-05-14T20:35:48.714Z,6.37
2019-05-14T20:38:18.763Z,5.20
2019-05-14T20:40:48.707Z,9.03
2019-05-14T20:43:18.673Z,5.13
2019-05-14T20:45:49.022Z,4.20
2019-05-14T20:48:18.975Z,9.67
2019-05-14T20:50:48.364Z,5.23
2019-05-14T20:53:18.561Z,5.70
2019-05-14T20:55:48.130Z,8.13
2019-05-14T20:58:19.911Z,4.77
2019-05-14T21:00:48.694Z,4.33
2019-05-14T21:03:18.700Z,5.60
2019-05-14T21:05:49.230Z,5.50
2019-05-14T21:08:19.003Z,5.40
2019-05-14T21:10:49.375Z,4.57
2019-05-14T21:13:18.728Z,4.30
2019-05-14T21:15:48.361Z,6.80
2019-05-14T21:18:18.948Z,5.20
2019-05-14T21:20:49.088Z,6.43
2019-05-14T21:23:18.759Z,10.63
2019-05-14T21:25:48.486Z,14.13
2019-05-14T21:28:17.705Z,5.40
2019-05-14T21:30:48.570Z,6.47
2019-05-14T21:33:19.228Z,7.10
2019-05-14T21:35:48.783Z,5.80
2019-05-14T21:38:19.148Z,5.53
2019-05-14T21:40:50.001Z,6.40
2019-05-14T21:43:19.365Z,5.73
2019-05-14T21:45:48.965Z,5.03
2019-05-14T21:48:19.962Z,5.10
2019-05-14T21:50:49.985Z,7.50
2019-05-14T21:53:19.497Z,7.00
2019-05-14T21:55:49.741Z,8.00
2019-05-14T21:58:19.816Z,7.07
2019-05-14T22:00:51.844Z,6.50
2019-05-14T22:03:21.404Z,4.50
2019-05-14T22:05:51.590Z,4.87
2019-05-14T22:08:20.989Z,9.57
2019-05-14T22:10:50.219Z,7.10
2019-05-14T22:13:19.764Z,5.80
2019-05-14T22:15:49.647Z,4.77
2019-05-14T22:18:20.878Z,5.03
2019-05-14T22:20:50.157Z,5.50
2019-05-14T22:23:21.230Z,4.83
2019-05-14T22:25:50.606Z,5.57
2019-05-14T22:28:20.161Z,4.13
2019-05-14T22:30:49.451Z,4.70
2019-05-14T22:33:19.207Z,4.43
2019-05-14T22:35:48.698Z,5.43
2019-05-14T22:38:20.210Z,7.60
2019-05-14T22:40:48.941Z,6.50
2019-05-14T22:43:18.506Z,4.00
2019-05-14T22:45:48.197Z,7.80
2019-05-14T22:48:18.606Z,3.47
2019-05-14T22:50:48.602Z,3.47
2019-05-14T22:53:18.391Z,6.33
2019-05-14T22:55:49.112Z,6.17
2019-05-14T22:58:25.432Z,3.00
2019-05-14T23:01:01.850Z,5.30
2019-05-14T23:03:21.340Z,8.70
2019-05-14T23:05:50.726Z,4.90
2019-05-14T23:08:19.963Z,7.57
2019-05-14T23:10:49.468Z,4.43
2019-05-14T23:13:18.807Z,4.07
2019-05-14T23:15:48.356Z,3.50
2019-05-14T23:18:18.140Z,5.30
2019-05-14T23:20:49.190Z,3.03
2019-05-14T23:23:19.769Z,5.50
2019-05-14T23:25:49.004Z,4.70
2019-05-14T23:28:19.196Z,5.40
2019-05-14T23:30:48.869Z,7.67
2019-05-14T23:33:19.258Z,6.37
2019-05-14T23:35:48.918Z,7.83
2019-05-14T23:38:19.056Z,6.17
2019-05-14T23:40:49.305Z,6.10
2019-05-14T23:43:18.795Z,7.10
2019-05-14T23:45:48.015Z,7.13
2019-05-14T23:48:18.877Z,3.40
2019-05-14T23:50:48.850Z,6.27
2019-05-14T23:53:18.537Z,4.43
2019-05-14T23:55:48.372Z,5.33
2019-05-14T23:58:20.627Z,4.47
